Briefing drone pour Coulanges-les-nevers

Rechercher une autre localisation

Conditions de vol :


Nous sommes le : Mardi 13 avril 2021
Il est 17:09 UTC (19:10 LT)

Lever de soleil : 04:35 UTC (06:35 LT)
Coucher de soleil : 18:59 UTC (20:59 LT)

Météo

L'essentiel des conditions de vol

VIGILANCE MÉTÉO FRANCE - Nièvre (58)
Pas de vigilances particulieres
METAR de LFQG
LFQG 131700Z AUTO 02010KT CAVOK 09/M01 Q1028

Date d'émission: 13/04/2021
Heure d'émission: 17:00 UTC
Vent: 020° pour 10 KT (19 km/h)
Visibilité horizontale: > 10 km
Plafond : Plafond et visibilité OK (CAVOK)
Température: 9 °C
Point de rosée: -1 °C
Humidité: 50%
Pression (QNH): 1028 hPa
Prévision 24h pour Nevers (1 km)
Vent : 24° pour 4 KT (16 km/h)
Temperature Maxi: 10 °C
Temperature Min: 10 °C
Humidité : 35%
Condition : Ciel dégagé



Warning: count(): Parameter must be an array or an object that implements Countable in /homepages/6/d509196549/htdocs/droneoxygene/briefing.php on line 743
WEBCAM POUR COULANGES-LES-NEVERS

Réglementation

Voler en sécurité

CARTES AERONAUTIQUE 1/500.000
CARTES VAC (LFQG)
SUP AIP




Chargement des AIP...
NOTAM (COULANGES-LES-NEVERS + Terrain à proximité / FIR )




Chargement des NOTAMS...
CONTACT PREFECTURE 58


Avertissement : Les données mises à disposition sont indicatives. Oxygène Drone ne pourra être tenu responsable de dégâts causés aux biens et aux personnes.